Time;durP1;ratioP1;P1;durP2;ratioP2;P2;SDS_P1;SDS_P2;PMS_P1;PMS_P2;Temp;Humidity;BMP_temperature;BMP_pressure;BME280_temperature;BME280_humidity;BME280_pressure;Samples;Min_cycle;Max_cycle;Signal;HPM_P1;HPM_P2
2024/02/01 00:00:17;;;;;;;12.20;8.55;;;;;;;8.26;70.84;100453.56;4952930;29;20069;-77
2024/02/01 00:02:44;;;;;;;12.73;8.90;;;;;;;8.21;70.99;100458.13;4953150;29;20058;-75
2024/02/01 00:05:10;;;;;;;15.77;9.05;;;;;;;8.14;71.70;100447.00;4952822;29;20173;-75
2024/02/01 00:07:37;;;;;;;13.90;8.90;;;;;;;8.10;72.09;100457.66;4935625;29;20043;-75
2024/02/01 00:10:05;;;;;;;16.95;9.43;;;;;;;8.05;72.31;100450.81;4953004;29;20051;-73
2024/02/01 00:12:31;;;;;;;16.55;10.05;;;;;;;8.01;72.81;100448.34;4952839;29;20086;-74
2024/02/01 00:14:58;;;;;;;14.23;10.10;;;;;;;7.98;73.40;100448.44;4952750;29;20520;-75
2024/02/01 00:17:24;;;;;;;16.27;9.68;;;;;;;7.94;73.59;100461.69;4935876;29;20050;-75
2024/02/01 00:19:51;;;;;;;19.83;11.05;;;;;;;7.91;74.41;100453.91;4953010;29;20051;-75
2024/02/01 00:22:18;;;;;;;15.65;10.23;;;;;;;7.89;74.37;100453.09;4935781;29;20158;-75
2024/02/01 00:24:59;;;;;;;15.25;10.07;;;;;;;7.89;74.59;100447.84;4952712;29;20083;-74
2024/02/01 00:27:27;;;;;;;15.85;10.63;;;;;;;7.87;75.02;100447.06;4952866;29;20051;-75
2024/02/01 00:29:53;;;;;;;14.55;10.93;;;;;;;7.86;75.68;100447.09;4952631;29;20054;-75
2024/02/01 00:32:20;;;;;;;13.85;10.73;;;;;;;7.85;76.11;100443.63;4952635;29;20055;-74
2024/02/01 00:34:47;;;;;;;14.88;11.18;;;;;;;7.85;76.49;100445.41;4952089;29;20055;-74
2024/02/01 00:37:14;;;;;;;13.50;10.32;;;;;;;7.85;76.95;100442.78;4935494;29;20074;-74
2024/02/01 00:39:40;;;;;;;16.52;10.60;;;;;;;7.84;77.00;100447.16;4952578;29;20457;-74
2024/02/01 00:42:07;;;;;;;13.45;9.98;;;;;;;7.86;77.39;100454.97;4935283;29;20059;-76
2024/02/01 00:44:34;;;;;;;12.88;10.10;;;;;;;7.86;78.03;100452.34;4935229;29;20055;-74
2024/02/01 00:47:01;;;;;;;16.73;10.63;;;;;;;7.86;77.85;100450.59;4953048;28;20153;-75
2024/02/01 00:49:28;;;;;;;13.93;10.50;;;;;;;7.87;78.52;100460.16;4958452;29;20393;-74
2024/02/01 00:51:57;;;;;;;15.73;10.77;;;;;;;7.87;78.83;100460.16;4958642;29;20485;-74
2024/02/01 00:54:24;;;;;;;12.20;10.02;;;;;;;7.90;78.78;100446.09;4958340;28;20445;-74
2024/02/01 00:56:51;;;;;;;15.57;10.32;;;;;;;7.90;78.96;100433.84;4958914;28;20047;-75
2024/02/01 00:59:17;;;;;;;13.73;10.60;;;;;;;7.92;79.61;100437.25;4958860;29;20074;-76
2024/02/01 01:01:44;;;;;;;16.73;10.77;;;;;;;7.92;79.25;100424.16;4958752;28;20407;-74
2024/02/01 01:04:11;;;;;;;16.20;10.80;;;;;;;7.94;79.22;100434.59;4941373;29;20047;-74
2024/02/01 01:06:37;;;;;;;14.60;10.63;;;;;;;7.95;79.88;100438.91;4958669;28;20134;-74
2024/02/01 01:09:04;;;;;;;14.68;10.57;;;;;;;7.97;79.98;100433.63;4970792;28;20046;-74
2024/02/01 01:11:32;;;;;;;14.88;11.00;;;;;;;7.97;79.81;100433.63;4978080;28;20055;-75
2024/02/01 01:13:59;;;;;;;13.77;11.35;;;;;;;7.97;80.25;100438.88;4977452;28;20051;-75
2024/02/01 01:16:27;;;;;;;13.02;10.18;;;;;;;7.97;80.54;100423.13;4977840;28;20054;-74
2024/02/01 01:18:53;;;;;;;15.65;10.93;;;;;;;7.99;80.58;100423.97;4977984;28;20090;-75
2024/02/01 01:21:20;;;;;;;14.65;10.77;;;;;;;7.99;80.56;100408.22;4977754;28;20506;-75
2024/02/01 01:23:47;;;;;;;14.50;11.25;;;;;;;7.99;80.62;100403.81;4977627;28;20105;-74
2024/02/01 01:26:19;;;;;;;12.70;10.38;;;;;;;7.99;81.12;100403.81;4977682;28;20094;-74
2024/02/01 01:28:45;;;;;;;14.00;10.93;;;;;;;8.01;80.85;100406.38;4960720;28;20109;-78
2024/02/01 01:31:12;;;;;;;13.38;10.45;;;;;;;8.02;81.09;100406.34;4960318;28;20488;-75
2024/02/01 01:33:38;;;;;;;14.48;10.38;;;;;;;8.04;81.14;100398.44;4977428;28;20082;-74
2024/02/01 01:36:06;;;;;;;12.68;10.77;;;;;;;8.04;81.32;100398.44;4977642;28;20047;-74
2024/02/01 01:38:32;;;;;;;13.05;10.23;;;;;;;8.06;81.56;100388.72;4977542;28;20051;-75
2024/02/01 01:40:59;;;;;;;13.35;11.13;;;;;;;8.06;81.54;100407.94;4977549;28;20098;-77
2024/02/01 01:43:25;;;;;;;15.38;11.45;;;;;;;8.07;81.73;100401.78;4960510;28;20054;-75
2024/02/01 01:46:02;;;;;;;13.95;10.30;;;;;;;8.06;81.90;100397.44;4977198;28;20093;-73
2024/02/01 01:48:31;;;;;;;12.68;11.00;;;;;;;8.11;82.02;100399.91;4960188;28;20089;-75
2024/02/01 01:50:59;;;;;;;12.63;10.35;;;;;;;8.13;81.79;100398.09;4977547;28;20055;-73
2024/02/01 01:53:27;;;;;;;11.85;10.45;;;;;;;8.15;82.11;100403.28;4960513;28;20051;-74
2024/02/01 01:55:56;;;;;;;12.75;10.38;;;;;;;8.16;82.04;100405.84;4960213;28;20057;-75
2024/02/01 01:58:26;;;;;;;12.60;9.95;;;;;;;8.18;82.12;100404.00;4977595;28;20188;-73
2024/02/01 02:00:54;;;;;;;11.50;9.52;;;;;;;8.21;81.93;100396.03;4974556;28;20137;-72
2024/02/01 02:03:28;;;;;;;14.50;10.52;;;;;;;8.21;82.14;100409.16;4974729;28;20109;-75
2024/02/01 02:05:55;;;;;;;12.23;10.68;;;;;;;8.25;82.61;100402.00;4957516;28;20058;-74
2024/02/01 02:08:22;;;;;;;13.00;10.52;;;;;;;8.27;82.30;100399.34;4974607;28;20062;-76
2024/02/01 02:10:50;;;;;;;15.80;10.05;;;;;;;8.29;82.42;100390.50;4974493;28;20118;-73
2024/02/01 02:13:16;;;;;;;11.77;9.85;;;;;;;8.31;82.57;100393.06;4974130;28;20504;-76
2024/02/01 02:15:43;;;;;;;10.93;9.73;;;;;;;8.32;82.88;100393.03;4974262;28;20129;-73
2024/02/01 02:18:09;;;;;;;13.02;9.82;;;;;;;8.35;83.02;100394.66;4974648;28;20054;-74
2024/02/01 02:20:43;;;;;;;12.02;10.13;;;;;;;8.37;82.98;100398.06;4956948;28;20073;-74
2024/02/01 02:23:13;;;;;;;12.52;10.32;;;;;;;8.39;83.03;100391.03;4974326;28;20047;-73
2024/02/01 02:25:39;;;;;;;11.75;9.45;;;;;;;8.45;83.01;100395.19;4973821;28;20574;-74
2024/02/01 02:28:06;;;;;;;11.88;9.85;;;;;;;8.48;83.01;100395.03;4956800;28;20059;-73
2024/02/01 02:30:33;;;;;;;11.02;9.70;;;;;;;8.52;83.13;100395.81;4974311;28;20081;-74
2024/02/01 02:33:00;;;;;;;11.52;8.85;;;;;;;8.55;83.13;100403.56;4956941;28;20058;-73
2024/02/01 02:35:28;;;;;;;12.73;10.57;;;;;;;8.57;83.16;100405.22;4973807;28;20054;-74
2024/02/01 02:37:55;;;;;;;11.40;10.25;;;;;;;8.59;83.23;100389.41;4956849;28;20468;-72
2024/02/01 02:40:22;;;;;;;10.88;9.68;;;;;;;8.61;83.34;100398.09;4974009;28;20042;-75
2024/02/01 02:42:50;;;;;;;11.10;9.63;;;;;;;8.63;83.54;100401.50;4973834;28;20153;-74
2024/02/01 02:45:17;;;;;;;12.30;10.13;;;;;;;8.66;83.44;100398.78;4973495;28;20081;-74
2024/02/01 02:47:47;;;;;;;11.48;9.65;;;;;;;8.70;83.49;100410.00;4956736;28;20516;-76
2024/02/01 02:50:15;;;;;;;11.90;10.45;;;;;;;8.72;83.51;100409.03;4973783;28;20093;-74
2024/02/01 02:52:43;;;;;;;12.00;9.80;;;;;;;8.77;83.60;100423.75;4956539;28;20389;-73
2024/02/01 02:55:10;;;;;;;10.15;9.15;;;;;;;8.79;83.56;100433.25;4973289;28;20057;-73
2024/02/01 02:57:37;;;;;;;10.18;8.82;;;;;;;8.82;83.42;100420.03;4956646;28;20051;-75
2024/02/01 03:00:09;;;;;;;10.93;9.45;;;;;;;8.85;83.54;100427.78;4973569;28;20642;-74
2024/02/01 03:02:37;;;;;;;11.25;9.48;;;;;;;8.90;83.66;100430.22;4973559;28;20059;-76
2024/02/01 03:05:05;;;;;;;9.80;8.77;;;;;;;8.92;83.64;100433.66;4973335;28;20066;-77
2024/02/01 03:07:32;;;;;;;10.63;9.35;;;;;;;8.95;83.77;100437.94;4956338;28;20491;-74
2024/02/01 03:10:01;;;;;;;9.13;8.13;;;;;;;8.98;83.90;100427.31;4973506;28;20054;-74
2024/02/01 03:12:27;;;;;;;8.98;8.07;;;;;;;9.01;83.85;100436.84;4973033;28;20137;-75
2024/02/01 03:14:54;;;;;;;11.10;9.30;;;;;;;9.04;83.78;100434.09;4955782;28;20047;-76
2024/02/01 03:17:21;;;;;;;10.40;9.30;;;;;;;9.07;83.85;100439.22;4973181;28;20057;-74
2024/02/01 03:19:49;;;;;;;11.32;10.05;;;;;;;9.10;83.74;100431.22;4973149;28;20047;-72
2024/02/01 03:22:20;;;;;;;12.45;10.23;;;;;;;9.12;84.02;100430.25;4955881;28;20290;-72
2024/02/01 03:24:47;;;;;;;12.02;9.93;;;;;;;9.16;83.98;100440.63;4972827;28;20090;-74
2024/02/01 03:27:14;;;;;;;11.27;10.02;;;;;;;9.18;84.01;100439.66;4956137;28;20134;-76
2024/02/01 03:29:45;;;;;;;11.40;9.75;;;;;;;9.21;83.92;100450.03;4972913;28;20126;-74
2024/02/01 03:32:11;;;;;;;13.48;9.63;;;;;;;9.24;84.27;100455.16;4973017;28;20140;-73
2024/02/01 03:34:38;;;;;;;14.10;10.27;;;;;;;9.28;84.11;100458.53;4972492;28;20054;-74
2024/02/01 03:37:05;;;;;;;12.40;9.65;;;;;;;9.32;83.95;100456.63;4955944;28;20108;-75
2024/02/01 03:39:32;;;;;;;11.35;10.20;;;;;;;9.34;84.14;100460.03;4973182;28;20055;-76
2024/02/01 03:41:59;;;;;;;14.00;10.07;;;;;;;9.37;84.06;100460.78;4972905;28;20050;-74
2024/02/01 03:44:26;;;;;;;12.43;10.48;;;;;;;9.41;84.05;100464.13;4972301;28;20574;-74
2024/02/01 03:46:56;;;;;;;12.20;10.23;;;;;;;9.42;84.23;100472.88;4972659;28;20054;-73
2024/02/01 03:49:24;;;;;;;11.10;8.85;;;;;;;9.47;83.91;100470.91;4972309;28;20038;-74
2024/02/01 03:51:51;;;;;;;13.90;9.77;;;;;;;9.50;84.13;100486.56;4972759;28;20051;-75
2024/02/01 03:54:18;;;;;;;14.18;9.48;;;;;;;9.50;84.06;100482.13;4955148;28;20368;-74
2024/02/01 03:56:46;;;;;;;12.18;9.10;;;;;;;9.54;84.01;100477.63;4972458;28;20064;-73
2024/02/01 03:59:14;;;;;;;12.10;8.70;;;;;;;9.57;83.88;100484.53;4955317;28;20522;-75
2024/02/01 04:01:40;;;;;;;10.50;8.07;;;;;;;9.59;83.72;100487.94;4972403;28;20063;-74
2024/02/01 04:04:07;;;;;;;10.50;7.85;;;;;;;9.61;83.83;100484.31;4955136;28;20420;-76
2024/02/01 04:06:35;;;;;;;14.32;8.68;;;;;;;9.62;83.76;100483.44;4972123;28;20051;-74
2024/02/01 04:09:06;;;;;;;12.75;8.50;;;;;;;9.64;83.40;100491.22;4955203;28;20138;-73
2024/02/01 04:11:32;;;;;;;14.55;8.25;;;;;;;9.65;83.16;100490.34;4972267;28;20143;-74
2024/02/01 04:13:59;;;;;;;12.18;8.30;;;;;;;9.65;83.22;100503.47;4971954;28;20134;-73
2024/02/01 04:16:27;;;;;;;13.25;8.32;;;;;;;9.66;82.94;100510.44;4954762;28;20086;-75
2024/02/01 04:18:57;;;;;;;12.40;7.05;;;;;;;9.67;82.92;100503.38;4972190;28;20539;-75
2024/02/01 04:21:27;;;;;;;16.08;7.43;;;;;;;9.67;82.68;100511.28;4972035;28;20061;-75
2024/02/01 04:23:54;;;;;;;11.45;6.47;;;;;;;9.64;82.62;100507.88;4971131;28;20047;-76
2024/02/01 04:26:21;;;;;;;12.55;6.45;;;;;;;9.65;82.61;100521.88;4972026;28;20046;-74
2024/02/01 04:28:51;;;;;;;14.15;6.93;;;;;;;9.63;82.38;100526.31;4972092;28;20129;-75
2024/02/01 04:31:18;;;;;;;11.90;6.18;;;;;;;9.62;82.32;100529.88;4955119;28;20057;-75
2024/02/01 04:33:46;;;;;;;9.27;5.78;;;;;;;9.60;82.32;100537.81;4971712;28;20058;-76
2024/02/01 04:36:13;;;;;;;13.13;6.80;;;;;;;9.59;82.20;100544.00;4972016;28;20074;-75
2024/02/01 04:38:40;;;;;;;15.32;6.35;;;;;;;9.59;82.36;100553.66;4971999;28;20051;-75
2024/02/01 04:41:07;;;;;;;12.95;5.63;;;;;;;9.58;82.25;100558.06;4971978;28;20097;-73
2024/02/01 04:43:33;;;;;;;14.73;6.07;;;;;;;9.57;82.01;100558.13;4954801;28;20050;-74
2024/02/01 04:46:00;;;;;;;11.70;5.97;;;;;;;9.56;82.24;100553.78;4954721;28;20051;-74
2024/02/01 04:48:26;;;;;;;13.30;5.72;;;;;;;9.54;82.20;100568.75;4972096;28;20047;-73
2024/02/01 04:50:54;;;;;;;15.88;6.05;;;;;;;9.52;81.96;100574.94;4971830;28;20496;-73
2024/02/01 04:53:20;;;;;;;15.93;6.25;;;;;;;9.52;82.00;100581.94;4971985;28;20464;-74
2024/02/01 04:55:50;;;;;;;14.90;5.53;;;;;;;9.50;82.11;100583.81;4963411;28;20047;-73
2024/02/01 04:58:20;;;;;;;10.65;4.72;;;;;;;9.48;81.93;100585.63;4954881;28;20384;-74
2024/02/01 05:00:47;;;;;;;16.45;4.95;;;;;;;9.48;82.29;100589.13;4972420;28;20054;-74
2024/02/01 05:03:15;;;;;;;12.00;4.72;;;;;;;9.48;81.96;100591.75;4971752;28;20113;-75
2024/02/01 05:05:45;;;;;;;12.43;4.38;;;;;;;9.47;82.06;100605.81;4971514;28;20058;-76
2024/02/01 05:08:15;;;;;;;14.00;4.90;;;;;;;9.47;82.14;100608.44;4971675;28;20061;-74
2024/02/01 05:10:44;;;;;;;11.90;5.03;;;;;;;9.46;82.16;100619.00;4954342;28;20047;-76
2024/02/01 05:13:12;;;;;;;16.08;4.55;;;;;;;9.45;82.01;100635.66;4971662;28;20054;-75
2024/02/01 05:15:41;;;;;;;14.93;4.03;;;;;;;9.44;81.66;100626.06;4954141;28;20140;-76
2024/02/01 05:18:08;;;;;;;13.27;4.18;;;;;;;9.41;81.27;100642.81;4971541;28;20113;-75
2024/02/01 05:20:35;;;;;;;18.92;4.18;;;;;;;9.38;80.97;100638.53;4971765;28;20106;-75
2024/02/01 05:23:03;;;;;;;14.75;3.03;;;;;;;9.34;80.84;100641.31;4971440;28;20058;-74
2024/02/01 05:25:30;;;;;;;14.10;3.58;;;;;;;9.31;80.55;100649.34;4971369;28;20065;-75
2024/02/01 05:27:57;;;;;;;19.52;3.35;;;;;;;9.25;79.96;100653.91;4971368;28;20411;-75
2024/02/01 05:30:24;;;;;;;17.80;2.78;;;;;;;9.20;79.94;100665.50;4971384;28;20073;-74
2024/02/01 05:32:52;;;;;;;16.00;3.33;;;;;;;9.14;79.77;100661.31;4971520;28;20451;-73
2024/02/01 05:35:28;;;;;;;18.05;3.78;;;;;;;9.07;79.01;100667.69;4974222;28;20059;-73
2024/02/01 05:37:57;;;;;;;17.38;3.08;;;;;;;9.02;79.50;100667.00;4975332;28;20047;-73
2024/02/01 05:40:24;;;;;;;14.48;3.20;;;;;;;8.98;79.66;100669.75;4975396;28;20109;-74
2024/02/01 05:42:50;;;;;;;14.00;3.28;;;;;;;8.92;79.73;100679.59;4975050;28;20113;-75
2024/02/01 05:45:18;;;;;;;20.75;3.47;;;;;;;8.86;79.47;100686.78;4974862;28;20059;-74
2024/02/01 05:47:46;;;;;;;13.73;2.83;;;;;;;8.82;79.81;100695.69;4957692;28;20050;-72
2024/02/01 05:50:17;;;;;;;14.82;3.22;;;;;;;8.77;79.67;100696.75;4957462;28;20515;-77
2024/02/01 05:52:43;;;;;;;17.35;3.05;;;;;;;8.72;79.08;100699.53;4957789;28;20058;-73
2024/02/01 05:55:13;;;;;;;18.73;2.63;;;;;;;8.67;79.18;100709.34;4974244;28;20110;-72
2024/02/01 05:57:43;;;;;;;20.83;4.00;;;;;;;8.61;79.21;100699.91;4974718;28;20047;-75
2024/02/01 06:00:10;;;;;;;20.63;2.90;;;;;;;8.55;78.95;100702.72;4974592;28;20090;-79
2024/02/01 06:02:37;;;;;;;15.55;3.40;;;;;;;8.50;78.79;100717.72;4974160;28;20042;-74
2024/02/01 06:05:05;;;;;;;13.07;3.00;;;;;;;8.42;78.65;100724.13;4974200;28;20054;-74
2024/02/01 06:07:32;;;;;;;18.10;3.10;;;;;;;8.35;79.12;100730.44;4974304;28;20053;-76
2024/02/01 06:09:59;;;;;;;17.52;3.25;;;;;;;8.28;78.73;100727.16;4957403;28;20102;-76
2024/02/01 06:12:28;;;;;;;20.50;3.33;;;;;;;8.24;78.44;100740.41;4957284;28;20089;-75
2024/02/01 06:15:01;;;;;;;19.27;3.80;;;;;;;8.18;78.75;100741.47;4974071;28;20050;-74
2024/02/01 06:17:28;;;;;;;17.48;3.20;;;;;;;8.11;78.89;100746.03;4974287;28;20112;-74
2024/02/01 06:19:55;;;;;;;22.73;3.80;;;;;;;8.05;78.77;100747.13;4974373;28;20090;-76
2024/02/01 06:22:22;;;;;;;15.82;3.10;;;;;;;8.01;78.67;100749.84;4957136;28;20510;-73
2024/02/01 06:24:49;;;;;;;18.50;3.25;;;;;;;7.97;79.13;100746.47;4973766;28;20519;-74
2024/02/01 06:27:15;;;;;;;20.85;3.60;;;;;;;7.90;78.39;100748.44;4974152;28;20400;-75
2024/02/01 06:29:42;;;;;;;20.30;3.45;;;;;;;7.86;78.99;100759.03;4956790;28;20113;-73
2024/02/01 06:32:19;;;;;;;15.75;4.05;;;;;;;7.82;78.74;100771.38;4974302;28;20595;-75
2024/02/01 06:34:54;;;;;;;20.90;3.60;;;;;;;7.74;78.66;100768.97;4973895;28;20055;-75
2024/02/01 06:37:21;;;;;;;22.40;3.40;;;;;;;7.72;79.00;100776.03;4974173;28;20122;-73
2024/02/01 06:40:11;;;;;;;25.35;3.58;;;;;;;7.67;78.87;100785.78;4957063;28;20047;-74
2024/02/01 06:42:55;;;;;;;22.98;4.22;;;;;;;7.61;78.79;100778.94;4973830;28;20055;-76
2024/02/01 06:45:28;;;;;;;21.00;3.28;;;;;;;7.60;79.00;100787.72;4972636;28;20495;-76
2024/02/01 06:48:08;;;;;;;23.95;3.40;;;;;;;7.55;78.89;100784.34;4949889;28;20051;-74
2024/02/01 06:50:57;;;;;;;22.38;3.30;;;;;;;7.51;78.64;100793.22;4973806;28;20467;-76
2024/02/01 06:53:33;;;;;;;20.30;3.47;;;;;;;7.47;79.00;100802.06;4973865;28;20813;-74
2024/02/01 06:56:06;;;;;;;23.80;3.25;;;;;;;7.40;78.84;100804.84;4973564;28;20149;-73
2024/02/01 06:58:47;;;;;;;18.48;3.67;;;;;;;7.37;78.99;100806.69;4973672;28;20050;-72
2024/02/01 07:01:24;;;;;;;23.63;3.83;;;;;;;7.33;79.15;100815.53;4956496;28;20403;-76
2024/02/01 07:03:57;;;;;;;22.90;3.22;;;;;;;7.30;78.85;100821.72;4965910;28;20055;-74
2024/02/01 07:09:27;;;;;;;18.15;2.70;;;;;;;7.26;78.75;100836.63;4798936;23;19922;-77
2024/02/01 07:12:15;;;;;;;16.70;3.67;;;;;;;7.21;79.00;100835.03;4973584;28;20109;-81
2024/02/01 07:14:48;;;;;;;19.17;3.50;;;;;;;7.16;78.88;100836.03;4973017;28;20050;-77
2024/02/01 07:17:27;;;;;;;18.98;3.30;;;;;;;7.12;78.95;100834.38;4973394;28;20093;-77
2024/02/01 07:20:03;;;;;;;20.30;3.58;;;;;;;7.08;79.33;100843.19;4973257;28;20059;-79
2024/02/01 07:22:39;;;;;;;25.35;3.90;;;;;;;7.03;79.32;100848.53;4956104;28;20146;-77
2024/02/01 07:25:36;;;;;;;28.10;4.13;;;;;;;7.02;79.42;100853.81;4973107;28;20046;-77
2024/02/01 07:58:21;;;;;;;28.40;4.45;;;;;;;6.80;79.74;100885.72;4953350;28;20044;-77
2024/02/01 08:00:51;;;;;;;19.13;3.78;;;;;;;6.78;79.89;100898.84;4953317;28;20102;-77
2024/02/01 08:08:40;;;;;;;21.00;4.05;;;;;;;6.77;79.97;100907.59;4953193;29;20397;-76
2024/02/01 08:11:07;;;;;;;22.52;3.75;;;;;;;6.76;80.19;100910.25;4958262;28;20055;-80
2024/02/01 08:13:35;;;;;;;24.77;3.60;;;;;;;6.76;80.25;100912.84;4972525;28;20117;-77
2024/02/01 08:16:02;;;;;;;27.67;4.28;;;;;;;6.75;80.25;100919.00;4971871;28;20078;-77
2024/02/01 08:18:35;;;;;;;22.20;3.83;;;;;;;6.76;80.36;100924.19;4972487;28;20043;-77
2024/02/01 08:21:04;;;;;;;28.70;4.22;;;;;;;6.76;79.94;100920.72;4972207;28;20496;-76
2024/02/01 08:23:31;;;;;;;26.65;4.03;;;;;;;6.76;79.86;100928.56;4972098;28;20506;-77
2024/02/01 08:26:02;;;;;;;21.88;3.83;;;;;;;6.74;80.12;100919.91;4971975;28;20150;-77
2024/02/01 08:28:32;;;;;;;19.52;3.35;;;;;;;6.74;79.93;100931.25;4972122;28;20077;-77
2024/02/01 08:31:02;;;;;;;25.70;4.20;;;;;;;6.74;80.13;100932.97;4972601;28;20050;-76
2024/02/01 08:33:29;;;;;;;24.45;4.20;;;;;;;6.74;80.21;100932.97;4972061;28;20113;-78
2024/02/01 08:35:57;;;;;;;22.73;3.60;;;;;;;6.75;80.11;100932.09;4971724;28;20046;-77
2024/02/01 08:38:24;;;;;;;21.25;4.03;;;;;;;6.76;80.34;100939.03;4972024;28;20574;-76
2024/02/01 08:40:50;;;;;;;26.65;5.20;;;;;;;6.76;80.73;100942.53;4971920;28;20141;-75
2024/02/01 08:43:17;;;;;;;27.48;5.03;;;;;;;6.77;80.55;100951.25;4971848;28;20080;-75
2024/02/01 08:45:46;;;;;;;27.85;4.78;;;;;;;6.77;80.45;100957.31;4971914;28;20652;-79
2024/02/01 08:48:13;;;;;;;20.13;4.10;;;;;;;6.77;80.59;100962.56;4971684;28;20053;-76
2024/02/01 08:50:50;;;;;;;26.05;4.53;;;;;;;6.80;80.66;100956.38;4971505;28;20053;-77
2024/02/01 08:53:18;;;;;;;28.33;4.13;;;;;;;6.81;80.59;100962.50;4954469;28;20058;-77
2024/02/01 08:55:45;;;;;;;25.30;4.97;;;;;;;6.83;80.53;100969.41;4971154;28;20108;-78
2024/02/01 08:58:12;;;;;;;21.23;3.75;;;;;;;6.84;80.80;100972.91;4954375;28;20055;-77
2024/02/01 09:00:42;;;;;;;19.80;4.38;;;;;;;6.85;80.75;100983.34;4971714;28;20046;-76
2024/02/01 09:03:15;;;;;;;22.48;3.50;;;;;;;6.88;80.83;100979.81;4971959;28;20090;-78
2024/02/01 09:05:48;;;;;;;;;;;;;;;6.90;79.60;100985.84;4954704;28;20055;-76
2024/02/01 09:08:24;;;;;;;13.32;2.90;;;;;;;6.96;80.95;100990.09;4971883;28;19922;-78
2024/02/01 09:10:57;;;;;;;17.77;3.50;;;;;;;6.97;81.01;100995.31;4975652;28;20551;-79
2024/02/01 09:13:28;;;;;;;17.15;3.38;;;;;;;6.99;80.98;100990.03;4975898;28;20043;-77
2024/02/01 09:15:56;;;;;;;28.27;3.92;;;;;;;7.02;81.50;100992.56;4958090;28;20085;-78
2024/02/01 09:18:25;;;;;;;22.83;4.65;;;;;;;7.06;81.49;100996.84;4958728;28;20138;-78
2024/02/01 09:20:52;;;;;;;28.95;5.40;;;;;;;7.09;81.29;101007.25;4975760;28;20113;-78
2024/02/01 09:23:22;;;;;;;20.70;4.10;;;;;;;7.13;81.48;101008.91;4975792;28;20058;-78
2024/02/01 09:25:49;;;;;;;23.95;4.15;;;;;;;7.17;81.44;101010.56;4975190;28;20106;-78
2024/02/01 09:28:15;;;;;;;19.88;4.25;;;;;;;7.22;81.78;101007.81;4975450;28;20137;-78
2024/02/01 09:30:47;;;;;;;24.42;4.57;;;;;;;7.25;81.54;101014.78;4958275;28;20408;-78
2024/02/01 09:33:20;;;;;;;26.38;3.95;;;;;;;7.30;80.71;101010.28;4957968;28;20093;-78
2024/02/01 09:35:47;;;;;;;26.92;3.85;;;;;;;7.35;81.59;101018.91;4975275;28;20411;-79
2024/02/01 09:38:14;;;;;;;26.60;4.65;;;;;;;7.40;81.83;101021.41;4975005;28;20043;-77
2024/02/01 09:40:43;;;;;;;29.10;4.85;;;;;;;7.46;81.92;101036.09;4975252;28;20581;-78
2024/02/01 09:43:20;;;;;;;22.15;4.38;;;;;;;7.49;81.33;101038.66;4974877;28;20138;-78
2024/02/01 09:45:47;;;;;;;24.52;3.70;;;;;;;7.56;81.57;101037.63;4975071;28;20093;-77
2024/02/01 09:48:18;;;;;;;26.45;4.70;;;;;;;7.63;81.58;101033.94;4975117;28;20101;-77
2024/02/01 09:50:51;;;;;;;26.45;4.20;;;;;;;7.66;80.26;101039.13;4974994;28;20488;-77
2024/02/01 09:53:22;;;;;;;27.35;3.85;;;;;;;7.71;80.19;101051.25;4957794;28;20085;-81
2024/02/01 09:55:50;;;;;;;13.88;3.53;;;;;;;7.76;81.25;101050.25;4957262;28;20282;-77
2024/02/01 09:58:18;;;;;;;21.88;3.92;;;;;;;7.80;81.14;101056.28;4975099;28;20153;-77
2024/02/01 10:00:45;;;;;;;24.77;5.15;;;;;;;7.85;81.36;101048.31;4974951;28;20055;-76
2024/02/01 10:03:13;;;;;;;30.02;4.32;;;;;;;7.89;81.40;101047.34;4974934;28;20059;-77
2024/02/01 10:05:42;;;;;;;30.20;4.82;;;;;;;7.93;81.23;101051.59;4974654;28;20446;-77
2024/02/01 10:08:13;;;;;;;31.70;4.82;;;;;;;7.95;80.54;101055.91;4957395;28;20484;-78
2024/02/01 10:10:44;;;;;;;27.55;4.53;;;;;;;8.02;81.33;101053.13;4974352;28;20055;-77
2024/02/01 10:13:17;;;;;;;22.00;3.90;;;;;;;8.06;81.55;101057.38;4974802;28;20403;-77
2024/02/01 10:15:46;;;;;;;23.33;5.10;;;;;;;8.12;81.12;101065.09;4974321;28;20063;-82
2024/02/01 10:18:16;;;;;;;22.40;5.65;;;;;;;8.18;81.37;101062.31;4974455;28;20043;-77
2024/02/01 10:20:49;;;;;;;23.77;4.05;;;;;;;8.23;80.83;101077.94;4973238;28;20051;-77
2024/02/01 10:23:16;;;;;;;21.63;4.22;;;;;;;8.31;81.24;101080.38;4974291;28;20069;-77
2024/02/01 10:25:48;;;;;;;28.05;4.32;;;;;;;8.37;81.53;101077.56;4956948;28;20478;-78
2024/02/01 10:28:19;;;;;;;23.63;3.92;;;;;;;8.43;80.86;101074.81;4974166;28;20109;-80
2024/02/01 10:30:49;;;;;;;21.83;4.07;;;;;;;8.54;81.59;101073.66;4974370;28;20126;-77
2024/02/01 10:33:19;;;;;;;26.90;4.40;;;;;;;8.60;81.17;101063.88;4973967;28;20046;-79
2024/02/01 10:35:48;;;;;;;25.88;3.88;;;;;;;8.67;81.34;101075.06;4956845;28;20105;-77
2024/02/01 10:38:26;;;;;;;29.58;4.65;;;;;;;8.72;80.04;101085.44;4957090;28;20053;-80
2024/02/01 10:41:01;;;;;;;33.30;4.95;;;;;;;8.83;81.94;101078.09;4974120;28;20420;-77
2024/02/01 10:43:30;;;;;;;29.90;5.07;;;;;;;8.93;81.42;101078.69;4974079;28;20050;-77
2024/02/01 10:46:06;;;;;;;33.95;4.90;;;;;;;8.99;79.88;101078.53;4973549;28;20055;-77
2024/02/01 10:48:35;;;;;;;29.13;4.90;;;;;;;9.11;81.57;101074.69;4974099;28;20054;-76
2024/02/01 10:51:09;;;;;;;31.52;4.80;;;;;;;9.21;81.97;101077.91;4974021;28;20065;-78
2024/02/01 10:53:45;;;;;;;21.40;3.85;;;;;;;9.29;79.82;101077.66;4956729;28;20083;-78
2024/02/01 10:56:14;;;;;;;22.08;4.57;;;;;;;9.39;81.05;101076.47;4973631;28;20049;-77
2024/02/01 10:58:47;;;;;;;35.25;5.55;;;;;;;9.49;79.77;101073.56;4973730;28;20043;-76
2024/02/01 11:01:16;;;;;;;34.45;5.53;;;;;;;9.58;80.69;101082.94;4973858;28;20066;-78
2024/02/01 11:03:57;;;;;;;26.00;4.75;;;;;;;9.62;78.26;101081.94;4973513;28;20066;-77
2024/02/01 11:06:28;;;;;;;21.83;4.20;;;;;;;9.72;80.15;101080.72;4973637;28;20508;-76
2024/02/01 11:08:56;;;;;;;26.70;4.47;;;;;;;9.83;81.04;101082.16;4973553;28;20057;-76
2024/02/01 11:11:30;;;;;;;20.23;3.70;;;;;;;9.90;80.19;101079.25;4973653;28;20054;-77
2024/02/01 11:14:11;;;;;;;24.00;3.78;;;;;;;10.03;79.62;101084.13;4956424;28;20047;-78
2024/02/01 11:16:46;;;;;;;25.35;4.82;;;;;;;10.17;80.29;101091.56;4973176;28;20485;-76
2024/02/01 11:19:14;;;;;;;25.77;4.40;;;;;;;10.29;80.30;101075.31;4956145;28;20129;-77
2024/02/01 11:21:52;;;;;;;28.33;4.03;;;;;;;10.36;77.96;101083.88;4956356;28;20484;-77
2024/02/01 11:24:21;;;;;;;31.35;5.68;;;;;;;10.45;78.61;101082.75;4973292;28;20059;-79
2024/02/01 11:26:54;;;;;;;23.55;4.25;;;;;;;10.52;79.01;101080.75;4973327;28;20054;-78
2024/02/01 11:29:24;;;;;;;18.25;4.28;;;;;;;10.58;79.75;101084.94;4973302;28;20407;-77
2024/02/01 11:31:57;;;;;;;25.00;4.25;;;;;;;10.63;78.64;101091.75;4955487;28;20054;-79
2024/02/01 11:34:25;;;;;;;22.05;4.20;;;;;;;10.74;80.81;101101.03;4972983;28;20046;-78
2024/02/01 11:36:53;;;;;;;30.02;4.80;;;;;;;10.90;83.08;101096.94;4973039;28;20101;-76
2024/02/01 11:39:20;;;;;;;23.00;5.00;;;;;;;11.13;83.19;101096.97;4972960;28;20050;-77
2024/02/01 11:41:48;;;;;;;24.00;4.30;;;;;;;11.31;80.84;101095.44;4972997;28;20053;-76
2024/02/01 11:44:18;;;;;;;26.92;3.85;;;;;;;11.49;80.88;101093.88;4955613;28;20086;-77
2024/02/01 11:46:45;;;;;;;32.35;4.80;;;;;;;11.62;79.33;101091.59;4973030;28;20085;-78
2024/02/01 11:49:17;;;;;;;24.52;4.47;;;;;;;11.68;76.31;101083.44;4972926;28;20051;-78
2024/02/01 11:51:46;;;;;;;28.77;5.22;;;;;;;11.74;77.13;101092.91;4972811;28;20058;-78
2024/02/01 11:54:13;;;;;;;23.13;4.85;;;;;;;11.76;76.80;101077.84;4955379;28;20106;-77
2024/02/01 11:56:43;;;;;;;26.88;5.28;;;;;;;11.78;76.46;101107.66;4972447;28;20117;-77
2024/02/01 11:59:11;;;;;;;26.85;4.45;;;;;;;11.73;75.00;101099.06;4973031;28;20050;-78
2024/02/01 12:01:38;;;;;;;24.38;4.43;;;;;;;11.67;74.81;101097.53;4972955;28;20086;-77
2024/02/01 12:04:07;;;;;;;24.05;4.90;;;;;;;11.59;73.48;101095.22;4972498;28;20105;-76
2024/02/01 12:06:34;;;;;;;25.63;4.72;;;;;;;11.55;74.95;101098.03;4972337;28;20060;-77
2024/02/01 12:09:02;;;;;;;24.63;3.35;;;;;;;11.52;75.51;101100.78;4955472;28;20072;-78
2024/02/01 12:11:34;;;;;;;25.15;5.18;;;;;;;11.51;76.97;101107.84;4972331;28;20443;-78